Time;durP1;ratioP1;P1;durP2;ratioP2;P2;SDS_P1;SDS_P2;PMS_P1;PMS_P2;Temp;Humidity;BMP_temperature;BMP_pressure;BME280_temperature;BME280_humidity;BME280_pressure;Samples;Min_cycle;Max_cycle;Signal;HPM_P1;HPM_P2
2022/08/29 00:01:32;;;;;;;3.45;1.90;;;;;;;14.15;95.41;101695.09;5029099;28;20116;-79
2022/08/29 00:07:45;;;;;;;6.45;2.42;;;;;;;13.82;96.16;101654.72;4952582;28;20042;-78
2022/08/29 00:10:11;;;;;;;4.00;2.50;;;;;;;14.07;95.85;101703.25;5016225;28;20060;-79
2022/08/29 00:12:37;;;;;;;5.30;2.67;;;;;;;13.98;96.11;101685.41;5018465;28;20036;-78
2022/08/29 00:15:05;;;;;;;3.72;2.50;;;;;;;14.00;96.38;101699.59;5028481;28;20021;-78
2022/08/29 00:17:31;;;;;;;5.55;2.60;;;;;;;13.95;96.80;101700.13;5028566;28;20045;-78
2022/08/29 00:19:57;;;;;;;2.83;1.63;;;;;;;13.91;97.32;101695.22;4996960;28;20417;-79
2022/08/29 00:22:23;;;;;;;5.75;2.30;;;;;;;13.88;97.46;101688.31;5033627;28;20478;-78
2022/08/29 00:25:03;;;;;;;4.10;3.03;;;;;;;13.85;97.38;101692.19;5029305;28;20029;-78
2022/08/29 00:27:32;;;;;;;7.00;2.83;;;;;;;13.82;98.31;101694.41;5012418;28;20033;-78
2022/08/29 00:29:58;;;;;;;4.07;2.55;;;;;;;13.77;98.31;101694.09;4998399;28;20029;-78
2022/08/29 00:32:24;;;;;;;4.20;2.38;;;;;;;13.74;98.51;101686.34;4998394;28;20046;-78
2022/08/29 00:34:49;;;;;;;3.40;2.40;;;;;;;13.69;99.12;101694.13;5013127;28;20421;-77
2022/08/29 00:37:15;;;;;;;6.40;3.03;;;;;;;13.60;99.17;101682.47;5028433;28;20036;-78
2022/08/29 00:39:41;;;;;;;5.40;2.72;;;;;;;13.62;99.46;101689.38;4997061;28;20379;-78
2022/08/29 00:42:06;;;;;;;4.45;2.45;;;;;;;13.58;99.88;101696.19;5029455;28;20044;-78
2022/08/29 00:44:32;;;;;;;5.28;2.70;;;;;;;13.53;100.00;101692.31;5029230;28;20120;-77
2022/08/29 00:47:02;;;;;;;3.75;2.47;;;;;;;13.53;100.00;101690.44;5028500;28;20070;-78
2022/08/29 00:49:35;;;;;;;3.85;2.50;;;;;;;13.56;100.00;101697.38;5013464;28;20039;-78
2022/08/29 00:52:10;;;;;;;6.50;2.50;;;;;;;13.51;100.00;101689.75;5030482;28;20037;-78
2022/08/29 00:54:37;;;;;;;3.67;2.50;;;;;;;13.53;100.00;101697.72;5031932;28;20059;-78
2022/08/29 00:57:03;;;;;;;3.38;1.88;;;;;;;13.52;100.00;101699.56;5016506;28;20029;-79
2022/08/29 00:59:33;;;;;;;3.90;2.38;;;;;;;13.52;100.00;101696.00;5032747;28;20510;-78
2022/08/29 01:02:03;;;;;;;3.55;2.42;;;;;;;13.39;100.00;101677.66;5029794;28;20025;-79
2022/08/29 01:04:33;;;;;;;4.93;2.78;;;;;;;13.42;100.00;101698.91;5000201;28;20033;-78
2022/08/29 01:06:59;;;;;;;4.57;2.67;;;;;;;13.33;100.00;101692.66;5016648;28;20080;-79
2022/08/29 01:09:25;;;;;;;4.32;2.80;;;;;;;13.34;100.00;101693.53;5000372;28;20468;-77
2022/08/29 01:14:36;;;;;;;3.78;2.72;;;;;;;13.34;100.00;101693.53;5032128;28;20056;-78
2022/08/29 01:17:04;;;;;;;2.85;2.25;;;;;;;13.33;100.00;101692.66;5032752;28;20395;-77
2022/08/29 01:19:38;;;;;;;6.13;3.15;;;;;;;13.39;100.00;101701.97;4997837;28;20045;-77
2022/08/29 01:22:23;;;;;;;5.70;2.90;;;;;;;13.31;100.00;101683.91;5028536;28;20033;-78
2022/08/29 01:24:50;;;;;;;6.60;3.22;;;;;;;13.36;100.00;101700.44;5010999;28;20033;-78
2022/08/29 01:27:25;;;;;;;5.25;3.35;;;;;;;13.17;100.00;101663.78;5032579;28;20117;-78
2022/08/29 01:29:51;;;;;;;5.38;3.42;;;;;;;13.33;100.00;101691.81;5025742;28;20021;-77
2022/08/29 01:32:17;;;;;;;7.22;3.03;;;;;;;13.09;100.00;101655.69;5018375;28;20083;-78
2022/08/29 01:34:42;;;;;;;6.03;2.83;;;;;;;13.31;100.00;101693.84;5015730;28;20663;-80
2022/08/29 01:37:11;;;;;;;5.55;3.45;;;;;;;13.28;100.00;101694.19;5031504;28;20025;-78
2022/08/29 01:39:39;;;;;;;4.78;2.88;;;;;;;13.25;100.00;101686.41;5014051;28;20081;-79
2022/08/29 01:42:09;;;;;;;6.57;3.25;;;;;;;13.27;100.00;101693.34;5017391;28;20029;-78
2022/08/29 01:44:36;;;;;;;5.63;3.30;;;;;;;13.21;100.00;101683.22;5016035;28;20077;-80
2022/08/29 01:47:03;;;;;;;4.38;2.42;;;;;;;13.18;100.00;101679.00;5000111;28;20035;-79
2022/08/29 01:49:30;;;;;;;4.75;3.20;;;;;;;13.25;100.00;101689.09;5006746;28;20057;-78
2022/08/29 01:51:56;;;;;;;6.10;3.47;;;;;;;13.19;100.00;101696.03;5000541;28;20483;-79
2022/08/29 01:54:21;;;;;;;5.95;3.45;;;;;;;13.11;100.00;101677.97;5031484;28;20035;-80
2022/08/29 01:56:50;;;;;;;7.65;3.05;;;;;;;13.10;100.00;101676.31;5015921;28;20030;-80
2022/08/29 01:59:19;;;;;;;11.73;3.58;;;;;;;13.12;100.00;101681.50;5032419;28;20041;-79
2022/08/29 02:01:54;;;;;;;7.35;3.70;;;;;;;13.14;100.00;101688.44;5005171;28;20041;-79
2022/08/29 02:04:20;;;;;;;5.80;3.95;;;;;;;12.96;100.00;101669.72;5035035;28;20416;-80
2022/08/29 02:06:45;;;;;;;6.18;3.60;;;;;;;12.97;100.00;101682.22;5007979;28;20120;-80
2022/08/29 02:09:11;;;;;;;7.93;3.25;;;;;;;12.97;100.00;101686.78;5015620;28;20029;-79
2022/08/29 02:11:38;;;;;;;4.93;3.47;;;;;;;12.95;100.00;101684.22;5013067;28;20036;-79
2022/08/29 02:14:05;;;;;;;5.97;3.17;;;;;;;12.92;100.00;101678.34;5031237;28;20048;-80
2022/08/29 02:16:30;;;;;;;10.95;3.70;;;;;;;12.94;100.00;101687.13;4998697;28;20034;-79
2022/08/29 02:18:56;;;;;;;5.68;3.67;;;;;;;12.89;100.00;101678.69;5031702;28;20040;-80
2022/08/29 02:21:24;;;;;;;8.43;4.05;;;;;;;12.93;100.00;101680.84;5031639;28;20048;-79
2022/08/29 02:23:50;;;;;;;6.75;3.55;;;;;;;12.98;100.00;101683.03;5033171;28;20505;-79
2022/08/29 02:26:17;;;;;;;7.75;3.72;;;;;;;13.03;100.00;101686.09;5015127;28;20029;-79
2022/08/29 02:28:43;;;;;;;7.05;4.00;;;;;;;13.07;100.00;101682.06;5005894;28;20490;-78
2022/08/29 02:31:08;;;;;;;7.78;3.50;;;;;;;13.07;100.00;101687.44;5015006;28;20041;-79
2022/08/29 02:33:35;;;;;;;7.93;4.20;;;;;;;13.12;100.00;101684.22;5031356;28;20045;-79
2022/08/29 02:36:01;;;;;;;6.57;4.57;;;;;;;13.12;100.00;101682.34;5031065;28;20029;-80
2022/08/29 02:38:27;;;;;;;7.70;3.60;;;;;;;13.13;100.00;101685.91;5019738;28;20111;-79
2022/08/29 02:40:53;;;;;;;6.28;3.92;;;;;;;13.12;100.00;101687.75;5012394;28;20061;-79
2022/08/29 02:43:20;;;;;;;8.65;4.50;;;;;;;13.05;100.00;101684.06;5011199;28;20072;-80
2022/08/29 02:45:46;;;;;;;6.05;4.07;;;;;;;13.03;100.00;101680.69;5030048;28;20428;-79
2022/08/29 02:48:12;;;;;;;7.65;3.75;;;;;;;13.05;100.00;101684.06;5014786;28;20026;-79
2022/08/29 02:50:39;;;;;;;7.90;4.18;;;;;;;13.04;100.00;101685.06;5012493;28;20067;-79
2022/08/29 02:53:06;;;;;;;6.95;3.42;;;;;;;13.04;100.00;101685.06;5014562;28;20029;-79
2022/08/29 02:55:32;;;;;;;7.07;4.53;;;;;;;13.07;100.00;101678.47;5014502;28;20056;-79
2022/08/29 02:57:58;;;;;;;4.82;3.55;;;;;;;13.02;100.00;101665.50;5014131;28;20033;-79
2022/08/29 03:00:25;;;;;;;6.57;3.72;;;;;;;13.02;100.00;101679.00;5028556;28;20432;-79
2022/08/29 03:02:51;;;;;;;6.28;3.80;;;;;;;13.04;100.00;101674.25;5024754;28;20033;-79
2022/08/29 03:05:19;;;;;;;6.88;3.97;;;;;;;13.01;100.00;101671.91;5015053;28;20041;-79
2022/08/29 03:07:46;;;;;;;6.32;4.35;;;;;;;13.01;100.00;101677.31;5058446;28;20128;-79
2022/08/29 03:10:12;;;;;;;7.05;4.18;;;;;;;12.93;100.00;101680.84;5029508;28;20109;-79
2022/08/29 03:12:38;;;;;;;9.23;3.78;;;;;;;12.94;100.00;101685.25;4996974;28;20033;-79
2022/08/29 03:15:05;;;;;;;7.30;3.80;;;;;;;12.76;100.00;101657.59;5002018;28;20037;-78
2022/08/29 03:17:31;;;;;;;7.40;3.97;;;;;;;12.81;100.00;101673.25;5015529;28;20033;-79
2022/08/29 03:19:57;;;;;;;6.07;4.32;;;;;;;12.57;100.00;101641.69;5028017;28;20124;-79
2022/08/29 03:22:23;;;;;;;9.10;4.45;;;;;;;12.73;100.00;101671.41;5030170;28;20075;-78
2022/08/29 03:24:49;;;;;;;6.35;4.30;;;;;;;12.76;100.00;101676.47;5031378;28;20067;-78
2022/08/29 03:27:15;;;;;;;5.80;3.20;;;;;;;12.77;100.00;101678.97;5029912;28;20112;-78
2022/08/29 03:29:40;;;;;;;7.65;4.25;;;;;;;12.79;100.00;101683.38;5030422;28;20038;-78
2022/08/29 03:32:06;;;;;;;7.97;4.28;;;;;;;12.82;100.00;101677.66;5031850;28;20029;-78
2022/08/29 03:34:32;;;;;;;6.90;4.07;;;;;;;12.84;100.00;101684.56;5014251;28;20112;-80
2022/08/29 03:36:58;;;;;;;7.55;4.15;;;;;;;12.75;100.00;101670.25;5013364;28;20027;-79
2022/08/29 03:39:24;;;;;;;9.65;4.70;;;;;;;12.84;100.00;101671.06;4996501;28;20025;-78
2022/08/29 03:41:50;;;;;;;6.70;4.28;;;;;;;12.86;100.00;101677.16;5032599;28;20155;-79
2022/08/29 03:44:15;;;;;;;7.13;4.40;;;;;;;12.84;100.00;101664.84;5029884;28;20037;-78
2022/08/29 03:46:41;;;;;;;8.73;4.20;;;;;;;12.89;100.00;101663.31;5030048;28;20036;-79
2022/08/29 03:49:07;;;;;;;7.38;4.88;;;;;;;12.90;100.00;101669.56;5027825;28;20052;-78
2022/08/29 03:51:37;;;;;;;7.65;4.35;;;;;;;12.84;100.00;101660.28;4997284;28;20510;-79
2022/08/29 03:54:04;;;;;;;10.88;4.57;;;;;;;12.87;100.00;101664.50;5030658;28;20032;-78
2022/08/29 03:56:30;;;;;;;10.18;4.95;;;;;;;12.83;100.00;101660.44;5014766;28;20041;-79
2022/08/29 03:58:57;;;;;;;8.23;4.40;;;;;;;12.79;100.00;101653.72;5028609;28;20040;-79
2022/08/29 04:01:27;;;;;;;8.68;4.63;;;;;;;12.81;100.00;101652.53;5010721;28;20042;-79
2022/08/29 04:03:54;;;;;;;9.70;4.82;;;;;;;12.82;100.00;101658.75;5029665;28;20052;-79
2022/08/29 04:06:21;;;;;;;9.85;5.03;;;;;;;12.83;100.00;101657.75;5013015;28;20078;-79
2022/08/29 04:08:47;;;;;;;10.90;4.78;;;;;;;12.82;100.00;101647.97;4996200;28;20042;-78
2022/08/29 04:11:14;;;;;;;6.55;4.47;;;;;;;12.82;100.00;101646.09;5012038;28;20132;-79
2022/08/29 04:13:40;;;;;;;8.45;5.18;;;;;;;12.84;100.00;101657.59;5029836;28;20029;-79
2022/08/29 04:16:14;;;;;;;7.75;5.05;;;;;;;12.82;100.00;101656.06;5029423;28;20033;-79
2022/08/29 04:18:40;;;;;;;10.70;5.13;;;;;;;12.73;100.00;101650.66;5012219;28;20550;-79
2022/08/29 04:21:06;;;;;;;6.63;4.45;;;;;;;12.80;100.00;101652.69;5029497;28;20132;-78
2022/08/29 04:23:33;;;;;;;9.82;5.82;;;;;;;12.80;100.00;101656.22;5028995;28;20022;-78
2022/08/29 04:25:59;;;;;;;8.10;4.97;;;;;;;12.71;100.00;101639.19;5015723;28;20243;-79
2022/08/29 04:28:26;;;;;;;9.68;5.40;;;;;;;12.82;100.00;101645.25;5033327;28;20526;-78
2022/08/29 04:30:52;;;;;;;7.35;4.78;;;;;;;12.83;100.00;101657.75;5001268;28;20029;-79
2022/08/29 04:33:20;;;;;;;8.90;5.05;;;;;;;12.79;100.00;101661.81;5033492;28;20032;-79
2022/08/29 04:35:46;;;;;;;10.32;5.13;;;;;;;12.65;100.00;101647.97;5031418;28;20030;-78
2022/08/29 04:38:11;;;;;;;9.48;5.03;;;;;;;12.70;100.00;101669.91;5033683;28;20060;-78
2022/08/29 04:40:39;;;;;;;6.50;4.85;;;;;;;12.68;100.00;101655.72;5016581;28;20115;-77
2022/08/29 04:43:05;;;;;;;8.98;4.72;;;;;;;12.65;100.00;101661.47;5033111;28;20364;-78
2022/08/29 04:45:32;;;;;;;10.38;5.40;;;;;;;12.67;100.00;101677.47;5035382;28;20099;-77
2022/08/29 04:47:58;;;;;;;9.15;4.95;;;;;;;12.66;100.00;101663.13;5016877;28;20364;-78
2022/08/29 04:50:24;;;;;;;11.63;5.45;;;;;;;12.62;100.00;101656.41;5034062;28;20028;-79
2022/08/29 04:52:51;;;;;;;8.02;4.65;;;;;;;12.69;100.00;101664.66;5016976;28;20039;-78
2022/08/29 04:55:19;;;;;;;8.13;5.32;;;;;;;12.68;100.00;101671.91;5032948;28;20029;-78
2022/08/29 04:57:45;;;;;;;8.07;4.95;;;;;;;12.65;100.00;101671.38;5025054;28;20030;-77
2022/08/29 05:00:15;;;;;;;7.78;4.68;;;;;;;12.60;100.00;101669.22;5015069;28;20063;-78
2022/08/29 05:02:41;;;;;;;8.00;4.85;;;;;;;12.59;100.00;101680.16;5005981;28;20065;-79
2022/08/29 05:05:09;;;;;;;10.38;5.78;;;;;;;12.52;100.00;101669.19;4998895;28;20025;-78
2022/08/29 05:07:35;;;;;;;8.68;5.07;;;;;;;12.63;100.00;101678.81;5032938;28;20536;-79
2022/08/29 05:10:05;;;;;;;12.60;5.47;;;;;;;12.64;100.00;101675.09;5037116;28;20507;-78
2022/08/29 05:12:32;;;;;;;11.73;5.80;;;;;;;12.67;100.00;101681.00;5032586;28;20029;-78
2022/08/29 05:14:58;;;;;;;9.15;5.47;;;;;;;12.66;100.00;101683.88;5016703;28;20036;-78
2022/08/29 05:17:24;;;;;;;9.30;5.75;;;;;;;12.63;100.00;101679.66;5014592;28;20037;-78
2022/08/29 05:19:50;;;;;;;12.05;5.68;;;;;;;12.62;100.00;101686.09;5033965;28;20037;-78
2022/08/29 05:22:18;;;;;;;9.32;5.80;;;;;;;12.62;100.00;101688.78;5029457;28;20043;-78
2022/08/29 05:24:44;;;;;;;11.98;6.28;;;;;;;12.54;100.00;101677.94;5034864;28;20057;-78
2022/08/29 05:27:13;;;;;;;8.70;5.93;;;;;;;12.62;100.00;101688.78;5031612;28;20298;-79
2022/08/29 05:29:40;;;;;;;10.65;6.20;;;;;;;12.38;100.00;101659.03;5034033;28;20053;-80
2022/08/29 05:32:09;;;;;;;11.15;5.57;;;;;;;12.62;100.00;101696.00;5026324;28;20037;-80
2022/08/29 05:34:37;;;;;;;10.65;5.68;;;;;;;12.60;100.00;101700.75;4998502;28;20040;-80
2022/08/29 05:37:06;;;;;;;7.68;4.93;;;;;;;12.57;100.00;101701.91;5031857;28;20264;-79
2022/08/29 05:39:32;;;;;;;12.30;6.15;;;;;;;12.53;100.00;101698.69;5031876;28;20076;-79
2022/08/29 05:41:58;;;;;;;13.70;6.55;;;;;;;12.52;100.00;101694.31;5033404;28;20060;-79
2022/08/29 05:44:26;;;;;;;9.02;5.60;;;;;;;12.62;100.00;101699.56;5032142;28;20077;-79
2022/08/29 05:46:54;;;;;;;8.48;5.70;;;;;;;12.68;100.00;101706.16;5020450;28;20402;-79
2022/08/29 05:49:24;;;;;;;11.43;6.28;;;;;;;12.59;100.00;101683.69;5000603;28;20032;-78
2022/08/29 05:51:54;;;;;;;12.23;6.47;;;;;;;12.66;100.00;101681.19;4998879;28;20128;-79
2022/08/29 05:54:27;;;;;;;9.65;5.88;;;;;;;12.82;100.00;101697.38;5023860;28;20040;-79
2022/08/29 05:56:54;;;;;;;8.38;4.95;;;;;;;12.73;100.00;101688.44;5025214;28;20065;-79
2022/08/29 05:59:20;;;;;;;11.77;6.13;;;;;;;12.85;100.00;101697.03;5031885;28;20065;-79
2022/08/29 06:01:46;;;;;;;11.30;5.25;;;;;;;12.90;100.00;101697.38;5030818;28;20041;-79
2022/08/29 06:04:12;;;;;;;8.88;5.00;;;;;;;12.88;100.00;101702.09;4999714;28;20486;-79
2022/08/29 06:06:39;;;;;;;10.63;6.00;;;;;;;12.92;100.00;101705.34;5032536;28;20087;-78
2022/08/29 06:09:05;;;;;;;10.95;6.28;;;;;;;12.83;100.00;101682.03;5001351;28;20030;-78
2022/08/29 06:11:31;;;;;;;11.57;5.88;;;;;;;13.02;100.00;101708.72;5006888;28;20037;-78
2022/08/29 06:13:58;;;;;;;10.48;6.25;;;;;;;13.07;100.00;101698.25;5018756;28;20056;-77
2022/08/29 06:16:24;;;;;;;10.07;6.32;;;;;;;13.16;100.00;101696.38;5015861;28;20029;-77
2022/08/29 06:18:50;;;;;;;10.07;5.40;;;;;;;13.25;100.00;101703.44;5014877;28;20088;-78
2022/08/29 06:21:17;;;;;;;10.95;5.40;;;;;;;13.25;100.00;101700.75;5029197;28;20033;-78
2022/08/29 06:23:44;;;;;;;9.23;5.20;;;;;;;13.29;100.00;101704.00;5023647;28;20041;-77
2022/08/29 06:26:10;;;;;;;12.02;6.80;;;;;;;13.25;100.00;101698.03;5006815;28;20050;-77
2022/08/29 06:28:37;;;;;;;9.88;6.20;;;;;;;13.27;100.00;101698.75;5015676;28;20033;-77
2022/08/29 06:31:08;;;;;;;11.07;6.15;;;;;;;13.29;100.00;101698.59;5014464;28;20033;-78
2022/08/29 06:33:34;;;;;;;10.93;5.68;;;;;;;13.33;100.00;101699.94;5013828;28;20030;-78
2022/08/29 06:36:00;;;;;;;11.23;7.47;;;;;;;13.33;100.00;101695.38;5002159;28;20041;-77
2022/08/29 06:38:26;;;;;;;11.32;6.47;;;;;;;13.40;100.00;101698.25;5014932;28;20083;-78
2022/08/29 06:40:51;;;;;;;11.43;6.75;;;;;;;13.47;100.00;101704.66;5030180;28;20091;-79
2022/08/29 06:43:17;;;;;;;11.63;7.15;;;;;;;13.55;100.00;101699.22;5029932;28;20026;-78
2022/08/29 06:45:43;;;;;;;11.23;5.88;;;;;;;13.47;100.00;101682.16;5014419;28;20029;-78
2022/08/29 06:48:09;;;;;;;16.42;6.82;;;;;;;13.73;100.00;101706.25;5017136;28;20030;-78
2022/08/29 06:50:37;;;;;;;14.45;6.97;;;;;;;13.74;100.00;101699.84;5034603;28;20038;-79
2022/08/29 06:53:06;;;;;;;11.95;6.25;;;;;;;13.82;100.00;101700.66;5030615;28;20402;-78
2022/08/29 06:55:36;;;;;;;11.75;6.45;;;;;;;13.95;100.00;101716.34;4998325;28;20142;-78
2022/08/29 06:58:03;;;;;;;13.45;7.00;;;;;;;14.02;100.00;101713.75;5030633;28;20029;-79
2022/08/29 07:00:28;;;;;;;11.50;6.95;;;;;;;14.08;100.00;101719.31;5017969;28;20113;-78
2022/08/29 07:02:54;;;;;;;11.13;6.07;;;;;;;14.17;100.00;101706.59;5031796;28;20122;-78
2022/08/29 07:05:22;;;;;;;10.10;6.63;;;;;;;14.26;100.00;101720.91;5014271;28;20463;-78
2022/08/29 07:07:48;;;;;;;10.13;5.43;;;;;;;14.29;100.00;101710.63;5013932;28;20076;-78
2022/08/29 07:10:14;;;;;;;10.77;6.22;;;;;;;14.34;100.00;101710.06;5030631;28;20041;-80
2022/08/29 07:12:40;;;;;;;13.23;7.20;;;;;;;14.42;100.00;101711.88;5014240;28;20034;-78
2022/08/29 07:15:07;;;;;;;9.77;6.35;;;;;;;14.55;100.00;101720.28;5024184;28;20061;-78
2022/08/29 07:17:33;;;;;;;13.40;7.15;;;;;;;14.62;100.00;101718.56;5045417;28;20120;-78
2022/08/29 07:19:58;;;;;;;12.65;6.82;;;;;;;14.72;100.00;101721.03;5026596;28;20059;-79
2022/08/29 07:22:25;;;;;;;15.40;7.55;;;;;;;14.80;100.00;101722.84;5027690;28;20033;-79
2022/08/29 07:24:51;;;;;;;12.88;7.50;;;;;;;14.92;99.98;101724.09;5030278;28;20088;-79
2022/08/29 07:27:17;;;;;;;9.25;5.43;;;;;;;15.03;99.73;101718.28;5030222;28;20171;-78
2022/08/29 07:29:43;;;;;;;14.10;6.93;;;;;;;15.18;98.58;101723.72;5010351;28;20493;-78
2022/08/29 07:32:09;;;;;;;10.98;6.70;;;;;;;15.34;97.39;101723.56;5029444;28;20045;-78
2022/08/29 07:34:35;;;;;;;12.13;7.15;;;;;;;15.48;96.54;101730.06;4994092;28;20376;-78
2022/08/29 07:37:03;;;;;;;12.50;6.80;;;;;;;15.68;95.36;101724.94;5033832;28;20025;-78
2022/08/29 07:39:29;;;;;;;9.25;6.40;;;;;;;15.90;94.47;101719.63;5011028;28;20042;-78
2022/08/29 07:41:54;;;;;;;15.27;7.30;;;;;;;16.32;92.07;101720.81;5029163;28;20037;-78
2022/08/29 07:44:20;;;;;;;15.65;7.57;;;;;;;16.42;90.76;101705.06;5029562;28;20033;-78
2022/08/29 07:46:46;;;;;;;12.63;7.43;;;;;;;16.61;89.59;101715.28;5029761;28;20499;-78
2022/08/29 07:49:12;;;;;;;12.13;6.95;;;;;;;16.76;87.29;101725.28;5014757;28;20401;-78
2022/08/29 07:51:38;;;;;;;10.60;6.70;;;;;;;16.91;88.07;101720.66;5026088;28;20038;-78
2022/08/29 07:54:05;;;;;;;11.07;7.00;;;;;;;17.14;87.30;101721.28;5011162;28;20037;-78
2022/08/29 07:56:34;;;;;;;15.52;7.30;;;;;;;17.39;86.32;101720.03;5024638;28;20033;-79
2022/08/29 07:58:59;;;;;;;11.80;7.40;;;;;;;17.64;85.08;101714.97;5030629;28;20061;-78
2022/08/29 08:01:25;;;;;;;13.88;7.47;;;;;;;17.85;83.75;101714.91;5026350;28;20103;-78
2022/08/29 08:03:52;;;;;;;11.95;7.47;;;;;;;18.05;81.55;101720.47;5027711;28;20037;-78
2022/08/29 08:06:20;;;;;;;12.98;6.25;;;;;;;18.19;80.65;101705.88;5027493;28;20120;-79
2022/08/29 08:08:46;;;;;;;9.77;5.72;;;;;;;18.37;79.77;101716.22;5008984;28;20030;-79
2022/08/29 08:11:12;;;;;;;14.52;6.82;;;;;;;18.45;80.49;101712.47;5026549;28;20081;-80
2022/08/29 08:13:38;;;;;;;12.77;7.10;;;;;;;18.42;78.72;101710.16;5025345;28;20128;-75
2022/08/29 08:16:12;;;;;;;10.73;6.20;;;;;;;18.35;79.15;101721.00;5028334;28;20032;-76
2022/08/29 08:18:39;;;;;;;12.65;7.10;;;;;;;18.32;79.49;101715.97;5028989;28;20510;-74
2022/08/29 08:21:13;;;;;;;10.02;6.40;;;;;;;18.39;78.50;101718.72;5001548;28;20033;-75
2022/08/29 08:23:39;;;;;;;11.25;6.75;;;;;;;18.34;78.32;101723.97;5012564;28;20040;-76
2022/08/29 08:26:05;;;;;;;11.93;7.25;;;;;;;18.21;79.78;101711.97;5028574;28;20495;-76
2022/08/29 08:28:31;;;;;;;15.38;8.68;;;;;;;18.34;79.06;101727.53;5010988;28;20064;-74
2022/08/29 08:30:58;;;;;;;11.88;6.82;;;;;;;18.39;80.35;101733.19;5021382;28;20033;-78
2022/08/29 08:33:24;;;;;;;11.63;7.18;;;;;;;18.55;80.31;101742.88;5010143;28;20041;-78
2022/08/29 08:35:51;;;;;;;9.13;6.90;;;;;;;18.70;79.68;101739.97;5000851;28;20087;-78
2022/08/29 08:38:21;;;;;;;10.38;7.05;;;;;;;18.89;77.75;101738.38;4999480;28;20468;-78
2022/08/29 08:40:55;;;;;;;10.07;5.93;;;;;;;19.17;76.28;101740.94;5028600;28;20052;-79
2022/08/29 08:43:26;;;;;;;10.35;7.57;;;;;;;19.54;75.88;101735.88;5027023;28;20097;-78
2022/08/29 08:45:54;;;;;;;8.07;4.97;;;;;;;20.03;72.29;101731.84;5026483;28;20112;-78
2022/08/29 08:48:27;;;;;;;10.48;6.70;;;;;;;20.74;69.73;101710.91;4992394;28;20029;-78
2022/08/29 08:51:03;;;;;;;10.65;5.25;;;;;;;21.62;65.55;101726.41;5011116;28;20164;-77
2022/08/29 08:53:37;;;;;;;9.38;6.00;;;;;;;23.16;60.42;101731.66;5011303;28;20041;-76
2022/08/29 08:56:18;;;;;;;10.57;6.40;;;;;;;24.26;55.96;101735.53;5024148;28;20506;-77
2022/08/29 08:58:52;;;;;;;8.55;6.03;;;;;;;23.63;58.03;101732.50;5023534;28;20482;-77
2022/08/29 09:01:42;;;;;;;12.30;6.15;;;;;;;23.09;58.83;101726.25;5029412;28;20028;-78
2022/08/29 09:04:36;;;;;;;10.07;6.13;;;;;;;22.73;60.35;101730.81;5041568;28;20038;-77
2022/08/29 09:07:13;;;;;;;9.05;5.97;;;;;;;22.41;62.11;101719.22;4993544;28;20068;-78
2022/08/29 09:10:03;;;;;;;8.57;6.05;;;;;;;22.25;62.10;101714.38;4996530;28;20029;-78
2022/08/29 09:12:38;;;;;;;8.23;5.72;;;;;;;22.39;61.01;101727.69;5030600;28;20060;-79
2022/08/29 09:15:08;;;;;;;8.88;6.80;;;;;;;22.27;61.39;101714.97;5033372;28;20037;-79
2022/08/29 09:17:43;;;;;;;10.70;6.30;;;;;;;22.31;61.90;101716.22;5015656;28;20077;-79
2022/08/29 09:20:17;;;;;;;10.05;5.70;;;;;;;22.41;62.03;101723.84;5019665;28;20033;-78
2022/08/29 09:22:48;;;;;;;9.93;5.80;;;;;;;22.75;61.48;101734.13;5046406;28;20065;-81
2022/08/29 09:25:14;;;;;;;9.82;6.43;;;;;;;23.42;60.80;101720.22;5036331;28;20052;-78
2022/08/29 09:27:40;;;;;;;7.45;5.35;;;;;;;24.34;56.34;101729.66;5031879;28;20434;-78
2022/08/29 09:30:08;;;;;;;12.23;4.80;;;;;;;24.86;53.19;101728.75;5015886;28;20375;-78
2022/08/29 09:32:51;;;;;;;10.02;6.68;;;;;;;25.22;52.51;101733.81;5031954;28;20037;-79
2022/08/29 09:35:21;;;;;;;13.30;6.45;;;;;;;25.40;51.15;101718.09;5015908;28;20033;-77
2022/08/29 09:37:55;;;;;;;9.88;5.57;;;;;;;25.21;50.34;101732.13;5008188;28;20033;-76
2022/08/29 09:40:21;;;;;;;10.52;6.13;;;;;;;25.61;50.42;101738.53;5031454;28;20173;-78
2022/08/29 09:43:00;;;;;;;8.13;5.40;;;;;;;26.79;45.53;101743.63;5019063;28;20037;-77
2022/08/29 09:45:26;;;;;;;8.98;6.88;;;;;;;26.73;46.19;101730.88;5030318;28;20029;-79
2022/08/29 09:48:13;;;;;;;7.82;5.55;;;;;;;26.83;46.58;101730.13;5014854;28;20032;-78
2022/08/29 09:50:39;;;;;;;9.45;5.68;;;;;;;29.15;42.78;101741.03;5031373;28;20703;-78
2022/08/29 09:53:05;;;;;;;6.45;5.55;;;;;;;30.78;37.15;101732.50;5015343;28;20048;-78
2022/08/29 09:55:37;;;;;;;9.20;5.45;;;;;;;30.41;36.59;101728.28;4991475;28;20041;-78
2022/08/29 09:58:15;;;;;;;7.60;5.32;;;;;;;30.48;37.36;101730.72;5030660;28;20030;-79
2022/08/29 10:00:57;;;;;;;8.23;5.43;;;;;;;29.14;39.24;101724.72;5031798;28;20467;-79
2022/08/29 10:03:24;;;;;;;9.55;5.45;;;;;;;28.15;41.28;101724.72;5031116;28;20121;-78
2022/08/29 10:06:13;;;;;;;5.72;4.50;;;;;;;27.19;44.05;101714.75;5027695;28;20034;-79
2022/08/29 10:08:40;;;;;;;5.40;4.88;;;;;;;27.42;43.83;101721.00;5012625;28;20100;-80
2022/08/29 10:11:48;;;;;;;8.20;4.95;;;;;;;27.91;43.64;101718.00;5014304;28;20025;-80
2022/08/29 10:14:52;;;;;;;8.35;5.07;;;;;;;29.35;39.99;101715.28;5030347;28;20029;-80
2022/08/29 10:20:11;;;;;;;7.13;4.60;;;;;;;30.68;37.78;101716.72;5028020;28;20563;-79
2022/08/29 10:22:59;;;;;;;6.35;4.20;;;;;;;31.34;35.98;101715.38;5012273;28;20128;-80
2022/08/29 10:25:37;;;;;;;4.20;3.67;;;;;;;31.91;34.57;101715.59;5027478;28;20036;-80
2022/08/29 10:28:28;;;;;;;6.30;4.47;;;;;;;32.69;34.52;101727.41;4991359;28;20096;-79
2022/08/29 10:31:07;;;;;;;;;;;;;;;33.53;32.62;101719.00;5030683;28;20495;-79
2022/08/29 10:33:53;;;;;;;5.63;4.40;;;;;;;34.06;30.78;101726.09;5029983;28;20548;-80
2022/08/29 10:36:26;;;;;;;7.38;3.75;;;;;;;34.35;30.14;101712.59;5023934;28;20112;-82
2022/08/29 10:39:01;;;;;;;5.05;3.35;;;;;;;33.76;31.04;101719.97;4997773;28;20044;-80
2022/08/29 10:41:33;;;;;;;3.88;3.20;;;;;;;33.65;31.76;101704.59;5015014;28;20034;-79
2022/08/29 10:44:20;;;;;;;5.28;3.45;;;;;;;33.90;30.24;101708.81;5000902;28;20037;-80
2022/08/29 10:46:52;;;;;;;8.13;3.50;;;;;;;33.54;30.28;101719.88;4997067;28;20045;-79
2022/08/29 10:49:39;;;;;;;5.78;3.58;;;;;;;32.93;31.30;101716.16;5033810;28;20683;-79
2022/08/29 10:52:13;;;;;;;5.13;3.63;;;;;;;32.21;33.56;101711.63;4994863;28;20033;-80
2022/08/29 10:55:00;;;;;;;6.40;3.08;;;;;;;32.28;33.46;101714.03;5013155;28;20900;-80
2022/08/29 10:57:40;;;;;;;4.70;3.45;;;;;;;32.64;32.13;101708.81;5027916;28;20368;-80
2022/08/29 11:00:07;;;;;;;6.10;3.13;;;;;;;32.16;33.04;101718.09;5012162;28;20048;-85
2022/08/29 11:02:57;;;;;;;6.15;3.80;;;;;;;32.69;34.18;101716.25;5015030;28;20029;-86
2022/08/29 11:05:32;;;;;;;5.00;3.70;;;;;;;33.73;31.88;101715.00;5010323;28;20026;-88
2022/08/29 11:08:07;;;;;;;6.10;3.60;;;;;;;34.12;30.78;101725.66;5030201;28;20404;-83
2022/08/29 11:10:39;;;;;;;5.70;4.05;;;;;;;33.55;31.10;101693.63;4997277;28;20067;-85
2022/08/29 11:13:20;;;;;;;6.45;4.18;;;;;;;33.06;31.98;101715.41;5028579;28;20040;-83
2022/08/29 11:16:09;;;;;;;6.35;3.88;;;;;;;32.60;31.66;101716.94;5020730;28;20065;-85
2022/08/29 11:18:38;;;;;;;3.90;3.50;;;;;;;31.98;32.59;101711.38;5015318;28;20080;-81
2022/08/29 11:21:37;;;;;;;6.97;3.97;;;;;;;32.69;32.36;101708.72;5031779;28;20021;-81
2022/08/29 11:24:03;;;;;;;4.53;3.50;;;;;;;32.10;33.54;101698.97;4994382;28;20073;-85
2022/08/29 11:26:43;;;;;;;5.10;3.70;;;;;;;31.74;34.59;101718.88;5019015;28;20071;-86
2022/08/29 11:29:40;;;;;;;6.65;3.92;;;;;;;31.21;35.37;101710.50;5028331;28;20033;-83
2022/08/29 11:32:25;;;;;;;6.88;4.13;;;;;;;31.51;34.89;101707.41;5012502;28;20033;-82
2022/08/29 11:35:13;;;;;;;7.45;3.85;;;;;;;31.53;35.75;101702.41;5014857;28;20087;-88
2022/08/29 11:38:03;;;;;;;4.85;4.07;;;;;;;32.68;32.71;101707.06;5030375;28;20104;-84